createdAt,value
2023-02-19T00:00:25.081Z,5.1
2023-02-19T00:05:30.205Z,5.2
2023-02-19T00:10:35.350Z,5.1
2023-02-19T00:15:40.485Z,5.1
2023-02-19T00:20:45.627Z,5.1
2023-02-19T00:25:51.764Z,5.1
2023-02-19T00:30:57.873Z,5.1
2023-02-19T00:36:03.947Z,5.1
2023-02-19T00:41:10.051Z,5.1
2023-02-19T00:46:16.160Z,5.1
2023-02-19T00:51:22.274Z,5.1
2023-02-19T00:56:28.376Z,5.1
2023-02-19T01:01:34.501Z,5.1
2023-02-19T01:06:40.639Z,5.1
2023-02-19T01:11:46.733Z,5.1
2023-02-19T01:16:52.872Z,5.1
2023-02-19T01:21:58.947Z,5.1
2023-02-19T01:27:04.087Z,5.1
2023-02-19T01:32:10.173Z,5.1
2023-02-19T01:37:16.297Z,5.1
2023-02-19T01:42:22.405Z,5.1
2023-02-19T01:47:28.534Z,5.1
2023-02-19T01:52:34.654Z,5.1
2023-02-19T01:57:40.761Z,5.1
2023-02-19T02:02:45.919Z,5.1
2023-02-19T02:07:51.046Z,5.1
2023-02-19T02:12:56.183Z,5
2023-02-19T02:18:01.294Z,5
2023-02-19T02:23:07.426Z,5
2023-02-19T02:28:13.565Z,5
2023-02-19T02:33:19.655Z,5
2023-02-19T02:43:31.897Z,5.1
2023-02-19T02:48:38.034Z,5
2023-02-19T02:53:44.166Z,5.1
2023-02-19T02:58:50.275Z,5
2023-02-19T03:03:56.407Z,5
2023-02-19T03:09:02.441Z,5
2023-02-19T03:14:08.546Z,5
2023-02-19T03:19:14.879Z,5
2023-02-19T03:24:19.797Z,5
2023-02-19T03:29:25.910Z,4.8
2023-02-19T03:34:32.076Z,4.6
2023-02-19T03:39:38.151Z,4.3
2023-02-19T03:44:44.263Z,4.2
2023-02-19T03:49:50.369Z,4
2023-02-19T03:54:56.473Z,3.6
2023-02-19T04:00:02.595Z,3.4
2023-02-19T04:05:07.752Z,3.3
2023-02-19T04:10:12.853Z,3.2
2023-02-19T04:15:18.008Z,3.1
2023-02-19T04:20:23.152Z,3.1
2023-02-19T04:25:29.265Z,3.1
2023-02-19T04:30:35.387Z,3.1
2023-02-19T04:35:41.494Z,3.1
2023-02-19T04:40:47.600Z,3
2023-02-19T04:45:53.730Z,3
2023-02-19T04:50:59.853Z,2.9
2023-02-19T04:56:05.966Z,2.7
2023-02-19T05:01:12.134Z,2.4
2023-02-19T05:06:18.207Z,2.4
2023-02-19T05:11:24.322Z,2.3
2023-02-19T05:16:30.458Z,2.2
2023-02-19T05:21:36.575Z,2.1
2023-02-19T05:26:41.708Z,2
2023-02-19T05:31:47.811Z,1.9
2023-02-19T05:36:53.968Z,1.7
2023-02-19T05:42:00.088Z,1.7
2023-02-19T05:47:06.164Z,1.7
2023-02-19T05:52:12.301Z,1.7
2023-02-19T05:57:18.419Z,1.7
2023-02-19T06:02:23.550Z,1.7
2023-02-19T06:07:28.680Z,1.6
2023-02-19T06:12:34.802Z,1.7
2023-02-19T06:17:40.917Z,1.7
2023-02-19T06:22:47.046Z,1.7
2023-02-19T06:27:53.165Z,1.8
2023-02-19T06:32:59.284Z,1.8
2023-02-19T06:38:05.389Z,1.8
2023-02-19T06:43:11.505Z,1.7
2023-02-19T06:48:17.620Z,1.8
2023-02-19T06:53:23.741Z,1.8
2023-02-19T06:58:29.874Z,1.8
2023-02-19T07:03:35.999Z,1.9
2023-02-19T07:08:42.127Z,1.9
2023-02-19T07:13:47.229Z,2
2023-02-19T07:18:53.366Z,2.2
2023-02-19T07:23:59.484Z,2.1
2023-02-19T07:29:05.613Z,2.3
2023-02-19T07:34:11.771Z,2.3
2023-02-19T07:39:17.830Z,2.4
2023-02-19T07:44:23.952Z,2.3
2023-02-19T07:49:29.080Z,2.5
2023-02-19T07:54:34.221Z,2.5
2023-02-19T07:59:40.407Z,2.5
2023-02-19T08:04:45.539Z,2.4
2023-02-19T08:09:50.623Z,2.5
2023-02-19T08:14:56.771Z,2.9
2023-02-19T08:20:01.909Z,3.2
2023-02-19T08:25:07.087Z,3.4
2023-02-19T08:30:13.130Z,3.6
2023-02-19T08:35:19.242Z,3.7
2023-02-19T08:40:25.371Z,3.6
2023-02-19T08:45:31.492Z,5
2023-02-19T08:50:37.613Z,6.2
2023-02-19T08:55:43.773Z,6.9
2023-02-19T09:00:49.912Z,6
2023-02-19T09:05:55.990Z,6.4
2023-02-19T09:11:02.062Z,6.1
2023-02-19T09:16:08.187Z,5.1
2023-02-19T09:21:14.298Z,4.8
2023-02-19T09:26:20.423Z,4.7
2023-02-19T09:31:25.568Z,4.8
2023-02-19T09:36:31.680Z,5.4
2023-02-19T09:46:43.929Z,5.2
2023-02-19T09:51:50.025Z,5.2
2023-02-19T09:56:56.127Z,4.9
2023-02-19T10:02:02.264Z,4.9
2023-02-19T10:07:08.379Z,5.4
2023-02-19T10:12:13.534Z,5.1
2023-02-19T10:17:18.644Z,5.2
2023-02-19T10:22:24.758Z,5
2023-02-19T10:27:30.873Z,5.7
2023-02-19T10:32:36.989Z,6.2
2023-02-19T10:37:43.093Z,6.4
2023-02-19T10:42:49.214Z,6.8
2023-02-19T10:47:55.361Z,6.7
2023-02-19T10:53:01.434Z,5.7
2023-02-19T10:58:07.549Z,4.9
2023-02-19T11:03:13.715Z,5.6
2023-02-19T11:08:18.790Z,6.3
2023-02-19T11:13:24.958Z,6.5
2023-02-19T11:18:31.088Z,6.6
2023-02-19T11:23:37.141Z,6.5
2023-02-19T11:28:43.231Z,6
2023-02-19T11:33:49.358Z,6.7
2023-02-19T11:38:55.467Z,6.3
2023-02-19T11:44:01.581Z,6.1
2023-02-19T11:49:07.691Z,6.7
2023-02-19T11:54:13.822Z,7.8
2023-02-19T11:59:18.990Z,8.2
2023-02-19T12:04:24.062Z,8.4
2023-02-19T12:09:30.161Z,7.6
2023-02-19T12:14:36.286Z,7.5
2023-02-19T12:19:42.451Z,8.2
2023-02-19T12:24:48.506Z,8.2
2023-02-19T12:29:54.626Z,8
2023-02-19T12:35:00.748Z,8.2
2023-02-19T12:40:06.861Z,8.4
2023-02-19T12:45:12.979Z,8.7
2023-02-19T12:50:19.093Z,8.5
2023-02-19T12:55:25.193Z,8.9
2023-02-19T13:00:31.572Z,8.8
2023-02-19T13:05:37.422Z,8
2023-02-19T13:10:42.558Z,7
2023-02-19T13:15:48.690Z,6.4
2023-02-19T13:20:54.775Z,6.4
2023-02-19T13:26:00.903Z,5.8
2023-02-19T13:31:06.994Z,5.5
2023-02-19T13:36:13.142Z,5.4
2023-02-19T13:41:19.259Z,5.3
2023-02-19T13:46:24.408Z,5.2
2023-02-19T13:51:29.520Z,5.8
2023-02-19T13:56:35.631Z,6.5
2023-02-19T14:01:41.731Z,6.8
2023-02-19T14:06:47.853Z,6.9
2023-02-19T14:11:54.013Z,7
2023-02-19T14:17:00.367Z,7
2023-02-19T14:22:06.281Z,7.3
2023-02-19T14:27:12.335Z,7.5
2023-02-19T14:32:18.416Z,7.1
2023-02-19T14:37:24.509Z,6.6
2023-02-19T14:42:30.631Z,6.9
2023-02-19T14:47:36.763Z,6.5
2023-02-19T14:52:42.988Z,6.2
2023-02-19T14:57:48.110Z,6.1
2023-02-19T15:02:54.107Z,6
2023-02-19T15:08:00.231Z,6
2023-02-19T15:13:06.322Z,5.9
2023-02-19T15:18:12.447Z,5.7
2023-02-19T15:23:18.546Z,5.5
2023-02-19T15:28:24.689Z,5.3
2023-02-19T15:33:29.873Z,5.2
2023-02-19T15:38:34.929Z,5
2023-02-19T15:43:41.043Z,4.8
2023-02-19T15:48:47.161Z,4.7
2023-02-19T15:53:53.291Z,4.4
2023-02-19T15:58:59.394Z,4.3
2023-02-19T16:04:05.600Z,3.9
2023-02-19T16:09:11.721Z,3.6
2023-02-19T16:14:17.755Z,3.6
2023-02-19T16:19:23.913Z,3.5
2023-02-19T16:24:30.037Z,3.1
2023-02-19T16:29:36.143Z,2.8
2023-02-19T16:34:42.264Z,2.4
2023-02-19T16:39:48.353Z,2
2023-02-19T16:44:53.500Z,1.6
2023-02-19T16:49:59.604Z,1.2
2023-02-19T16:55:05.737Z,0.8
2023-02-19T17:00:11.924Z,0.6
2023-02-19T17:05:17.967Z,0.4
2023-02-19T17:10:24.097Z,0.4
2023-02-19T17:15:30.195Z,0.5
2023-02-19T17:20:36.316Z,0.4
2023-02-19T17:25:42.420Z,0.5
2023-02-19T17:30:48.545Z,0.4
2023-02-19T17:35:54.691Z,0.4
2023-02-19T17:41:00.782Z,0.3
2023-02-19T17:46:06.891Z,0.1
2023-02-19T17:51:12.077Z,0
2023-02-19T17:56:18.138Z,0
2023-02-19T18:01:24.256Z,0.1
2023-02-19T18:06:30.411Z,0
2023-02-19T18:11:36.488Z,0
2023-02-19T18:16:42.602Z,0.2
2023-02-19T18:21:48.829Z,0.2
2023-02-19T18:26:54.851Z,0.2
2023-02-19T18:32:00.972Z,0.5
2023-02-19T18:37:07.083Z,0.5
2023-02-19T18:42:13.185Z,0.6
2023-02-19T18:47:19.325Z,0.5
2023-02-19T18:52:25.437Z,0.5
2023-02-19T18:57:30.557Z,0.6
2023-02-19T19:02:36.660Z,0.8
2023-02-19T19:07:42.849Z,0.8
2023-02-19T19:12:48.936Z,0.6
2023-02-19T19:17:55.027Z,0.6
2023-02-19T19:23:01.134Z,0.5
2023-02-19T19:28:07.253Z,0.6
2023-02-19T19:33:13.414Z,0.6
2023-02-19T19:38:19.486Z,0.3
2023-02-19T19:43:25.603Z,0.2
2023-02-19T19:48:31.710Z,0
2023-02-19T19:53:37.873Z,0.1
2023-02-19T19:58:43.968Z,0.2
2023-02-19T20:03:49.113Z,0.2
2023-02-19T20:08:55.228Z,0.6
2023-02-19T20:14:01.332Z,0.6
2023-02-19T20:19:07.456Z,0.6
2023-02-19T20:24:13.576Z,0.7
2023-02-19T20:29:19.689Z,0.7
2023-02-19T20:34:25.809Z,0.5
2023-02-19T20:39:31.967Z,0.5
2023-02-19T20:44:38.021Z,0.4
2023-02-19T20:49:44.156Z,0.3
2023-02-19T20:54:50.265Z,0.3
2023-02-19T20:59:56.378Z,0.2
2023-02-19T21:05:02.489Z,0.2
2023-02-19T21:10:07.625Z,0.3
2023-02-19T21:15:13.805Z,0.4
2023-02-19T21:20:19.916Z,0.5
2023-02-19T21:25:25.987Z,0.5
2023-02-19T21:30:32.103Z,0.4
2023-02-19T21:35:38.214Z,0.6
2023-02-19T21:40:44.331Z,0.6
2023-02-19T21:45:50.437Z,0.5
2023-02-19T21:50:56.554Z,0.5
2023-02-19T21:56:02.666Z,0.5
2023-02-19T22:01:08.781Z,0.4
2023-02-19T22:06:14.906Z,0.6
2023-02-19T22:16:27.142Z,1.3
2023-02-19T22:21:32.341Z,1.3
2023-02-19T22:26:38.563Z,1.6
2023-02-19T22:31:44.490Z,1.5
2023-02-19T22:36:50.663Z,1.2
2023-02-19T22:41:56.738Z,1
2023-02-19T22:47:02.901Z,1
2023-02-19T22:52:09.017Z,1
2023-02-19T22:57:15.219Z,1
2023-02-19T23:02:21.273Z,1
2023-02-19T23:07:27.345Z,1.1
2023-02-19T23:12:33.455Z,1
2023-02-19T23:17:39.574Z,1
2023-02-19T23:22:45.701Z,1
2023-02-19T23:27:50.847Z,1
2023-02-19T23:32:56.946Z,1
2023-02-19T23:38:03.054Z,1
2023-02-19T23:43:09.165Z,0.9
2023-02-19T23:48:15.295Z,1.2
2023-02-19T23:53:21.405Z,1.2
2023-02-19T23:58:27.533Z,1.1
